Huvudsida
METAR-TAF:

METAR-TAF

Flygplatser :

Sundsvall Timrå Airport

Sundsvall-Härnösand, Sverige

latitud: 62-32N, longitud: 017-27E, höjd: 4 m

Aktuellt väderrapport

Denna rapport gjordes för 31 minuter sedan, klockan 07:20 UTC
Vind 2 kt varierande vindriktning
Temperatur 6°C
Fuktighet 100%
Tryck 1013 hPa
Sikt 10 km eller mer
Få moln på en höjd av 3100 ft
Brutna moln på en höjd av 6400 ft

METAR: ESNN 180720Z VRB02KT 9999 FEW031 BKN064 06/06 Q1013

Tid: 09:51 (07:51 UTC)

Väderprognos

Denna rapport gjordes för 2 timmar och 21 minuter sedan, klockan 05:30 UTC
Prognos gäller från 18 kl. 06 UTC till 18 kl. 15 UTC
Vind 8 kt från nordväst
Sikt 10 km eller mer
Inga moln under 1 500 m eller inga cumulonimbus

TAF: ESNN 180530Z 1806/1815 31008KT CAVOK

Aktuella väderrapporter och prognoser från 4000 flygplatser (METAR- och TAF-rapporter).

De tillgängliga stationerna syns som gula och röda prickar på kartan.

För musen över prickarna för att se namnen på stationerna.

Klicka sedan för att få väderrapporter och prognoser.

För att ändra kartan: Klicka på de gröna knapparna med ett svart kors på för att zooma in; den gröna knappen med ett streck på för att zooma ut; eller på de gröna pilarna för angränsande kartor.


METAR-TAF: